createdAt,value
2019-05-06T00:00:09.126Z,8.17
2019-05-06T00:02:40.519Z,5.27
2019-05-06T00:05:10.344Z,4.87
2019-05-06T00:07:41.636Z,5.60
2019-05-06T00:10:26.604Z,6.93
2019-05-06T00:12:56.722Z,5.30
2019-05-06T00:15:28.421Z,4.43
2019-05-06T00:17:58.217Z,8.87
2019-05-06T00:20:27.991Z,3.80
2019-05-06T00:22:59.264Z,4.77
2019-05-06T00:25:34.874Z,6.13
2019-05-06T00:28:26.734Z,7.10
2019-05-06T00:31:09.617Z,5.80
2019-05-06T00:33:29.346Z,9.47
2019-05-06T00:36:00.566Z,8.20
2019-05-06T00:38:30.324Z,5.57
2019-05-06T00:41:03.910Z,4.87
2019-05-06T00:43:34.523Z,4.83
2019-05-06T00:46:04.813Z,6.60
2019-05-06T00:48:35.654Z,9.27
2019-05-06T00:51:05.318Z,6.77
2019-05-06T00:53:36.552Z,5.07
2019-05-06T00:56:06.182Z,6.50
2019-05-06T00:58:35.760Z,5.80
2019-05-06T01:01:05.789Z,8.83
2019-05-06T01:03:35.356Z,7.97
2019-05-06T01:06:05.201Z,6.03
2019-05-06T01:08:35.051Z,8.00
2019-05-06T01:11:06.312Z,5.50
2019-05-06T01:13:54.508Z,7.60
2019-05-06T01:16:24.961Z,7.20
2019-05-06T01:18:54.787Z,6.33
2019-05-06T01:21:24.434Z,7.57
2019-05-06T01:23:54.584Z,7.50
2019-05-06T01:26:24.429Z,6.13
2019-05-06T01:28:54.686Z,9.33
2019-05-06T01:31:28.895Z,5.27
2019-05-06T01:33:55.874Z,6.03
2019-05-06T01:36:25.525Z,5.23
2019-05-06T01:38:56.821Z,5.90
2019-05-06T01:41:46.030Z,9.77
2019-05-06T01:44:15.694Z,8.23
2019-05-06T01:46:45.428Z,7.47
2019-05-06T01:49:15.070Z,7.10
2019-05-06T01:51:44.724Z,9.00
2019-05-06T01:54:14.391Z,7.27
2019-05-06T01:56:44.594Z,6.90
2019-05-06T01:59:14.273Z,9.13
2019-05-06T02:01:56.930Z,6.43
2019-05-06T02:04:15.176Z,4.20
2019-05-06T02:06:44.856Z,8.53
2019-05-06T02:09:16.130Z,3.97
2019-05-06T02:11:47.911Z,6.37
2019-05-06T02:14:17.168Z,8.33
2019-05-06T02:16:46.799Z,5.67
2019-05-06T02:19:16.376Z,6.57
2019-05-06T02:21:47.579Z,8.57
2019-05-06T02:24:21.463Z,7.37
2019-05-06T02:26:51.105Z,7.00
2019-05-06T02:29:24.454Z,6.00
2019-05-06T02:32:16.094Z,6.10
2019-05-06T02:34:46.513Z,10.93
2019-05-06T02:37:17.801Z,8.20
2019-05-06T02:39:47.411Z,6.53
2019-05-06T02:42:18.105Z,7.47
2019-05-06T02:44:47.688Z,8.23
2019-05-06T02:47:34.474Z,8.87
2019-05-06T02:50:07.037Z,7.83
2019-05-06T02:52:36.692Z,7.00
2019-05-06T02:55:07.119Z,5.53
2019-05-06T02:57:36.808Z,7.40
2019-05-06T03:00:18.420Z,6.90
2019-05-06T03:02:48.655Z,10.60
2019-05-06T03:05:18.353Z,8.47
2019-05-06T03:07:48.034Z,12.83
2019-05-06T03:10:18.376Z,6.33
2019-05-06T03:12:47.953Z,6.27
2019-05-06T03:15:17.680Z,11.27
2019-05-06T03:17:47.345Z,6.87
2019-05-06T03:20:58.725Z,6.47
2019-05-06T03:23:48.158Z,8.13
2019-05-06T03:26:17.746Z,7.97
2019-05-06T03:28:47.387Z,8.20
2019-05-06T03:31:17.357Z,10.97
2019-05-06T03:34:08.292Z,8.83
2019-05-06T03:36:25.547Z,7.67
2019-05-06T03:38:49.443Z,6.57
2019-05-06T03:41:19.115Z,10.50
2019-05-06T03:43:48.713Z,9.57
2019-05-06T03:46:22.968Z,11.53
2019-05-06T03:49:03.701Z,6.17
2019-05-06T03:51:34.210Z,11.47
2019-05-06T03:54:04.614Z,6.87
2019-05-06T03:56:36.066Z,9.90
2019-05-06T03:59:07.116Z,12.00
2019-05-06T04:01:36.849Z,7.67
2019-05-06T04:04:06.510Z,9.13
2019-05-06T04:06:36.469Z,7.97
2019-05-06T04:09:06.145Z,8.10
2019-05-06T04:11:36.659Z,11.90
2019-05-06T04:14:07.784Z,4.83
2019-05-06T04:16:53.228Z,6.27
2019-05-06T04:19:24.029Z,9.57
2019-05-06T04:22:12.857Z,8.73
2019-05-06T04:24:54.032Z,7.70
2019-05-06T04:27:28.280Z,5.97
2019-05-06T04:29:59.043Z,7.33
2019-05-06T04:32:28.607Z,9.00
2019-05-06T04:34:58.255Z,5.17
2019-05-06T04:37:27.834Z,10.33
2019-05-06T04:39:57.516Z,8.13
2019-05-06T04:42:27.250Z,10.07
2019-05-06T04:44:56.815Z,10.47
2019-05-06T04:47:26.624Z,6.70
2019-05-06T04:49:56.355Z,9.00
2019-05-06T04:52:26.258Z,7.97
2019-05-06T04:54:57.408Z,5.47
2019-05-06T04:57:26.967Z,5.37
2019-05-06T04:59:56.558Z,7.60
2019-05-06T05:02:28.256Z,6.03
2019-05-06T05:04:57.905Z,5.40
2019-05-06T05:07:27.629Z,5.73
2019-05-06T05:10:03.475Z,7.90
2019-05-06T05:12:34.983Z,9.50
2019-05-06T05:15:17.056Z,7.40
2019-05-06T05:17:48.300Z,8.37
2019-05-06T05:20:17.962Z,6.67
2019-05-06T05:22:47.561Z,7.73
2019-05-06T05:25:17.204Z,8.60
2019-05-06T05:27:46.934Z,6.67
2019-05-06T05:30:16.772Z,9.47
2019-05-06T05:32:46.552Z,7.73
2019-05-06T05:35:16.201Z,5.63
2019-05-06T05:37:45.900Z,8.43
2019-05-06T05:40:15.636Z,11.57
2019-05-06T05:42:55.890Z,5.30
2019-05-06T05:45:25.709Z,5.50
2019-05-06T05:47:57.416Z,6.80
2019-05-06T05:50:32.500Z,6.30
2019-05-06T05:53:03.336Z,6.17
2019-05-06T05:55:33.299Z,3.27
2019-05-06T05:58:03.296Z,7.53
2019-05-06T06:00:35.343Z,4.07
2019-05-06T06:03:16.227Z,3.67
2019-05-06T06:05:45.815Z,4.33
2019-05-06T06:08:15.456Z,6.53
2019-05-06T06:10:49.661Z,5.37
2019-05-06T06:13:19.406Z,6.20
2019-05-06T06:15:52.172Z,8.57
2019-05-06T06:18:29.208Z,7.30
2019-05-06T06:21:17.944Z,7.97
2019-05-06T06:23:39.336Z,6.57
2019-05-06T06:26:08.999Z,4.53
2019-05-06T06:28:38.686Z,5.67
2019-05-06T06:31:18.810Z,5.30
2019-05-06T06:33:52.839Z,3.93
2019-05-06T06:36:39.346Z,5.90
2019-05-06T06:39:12.452Z,5.10
2019-05-06T06:41:42.390Z,5.27
2019-05-06T06:44:16.577Z,5.40
2019-05-06T06:46:46.161Z,2.63
2019-05-06T06:49:15.830Z,4.10
2019-05-06T06:51:45.494Z,3.17
2019-05-06T06:54:15.076Z,3.37
2019-05-06T06:56:46.368Z,4.23
2019-05-06T06:59:22.229Z,3.60
2019-05-06T07:02:02.594Z,4.37
2019-05-06T07:04:39.394Z,5.03
2019-05-06T07:07:09.076Z,4.57
2019-05-06T07:09:38.724Z,4.43
2019-05-06T07:12:08.448Z,3.77
2019-05-06T07:14:38.075Z,5.10
2019-05-06T07:17:07.814Z,3.87
2019-05-06T07:19:39.110Z,6.00
2019-05-06T07:22:08.755Z,3.80
2019-05-06T07:24:38.345Z,3.67
2019-05-06T07:27:09.560Z,4.23
2019-05-06T07:29:39.149Z,5.87
2019-05-06T07:32:08.881Z,5.30
2019-05-06T07:34:38.614Z,2.20
2019-05-06T07:37:08.262Z,3.53
2019-05-06T07:39:37.850Z,4.63
2019-05-06T07:42:09.150Z,3.07
2019-05-06T07:44:56.751Z,1.80
2019-05-06T07:47:33.831Z,4.00
2019-05-06T07:50:04.799Z,2.90
2019-05-06T07:52:34.451Z,3.00
2019-05-06T07:55:05.672Z,3.80
2019-05-06T07:57:35.242Z,3.40
2019-05-06T08:00:06.602Z,3.90
2019-05-06T08:02:36.338Z,2.70
2019-05-06T08:05:07.655Z,3.97
2019-05-06T08:07:37.560Z,4.67
2019-05-06T08:10:07.472Z,2.23
2019-05-06T08:12:37.127Z,3.77
2019-05-06T08:15:07.941Z,2.53
2019-05-06T08:17:39.216Z,2.20
2019-05-06T08:20:09.070Z,3.13
2019-05-06T08:22:43.193Z,1.70
2019-05-06T08:25:13.263Z,2.87
2019-05-06T08:27:42.913Z,3.37
2019-05-06T08:30:13.169Z,3.83
2019-05-06T08:32:42.925Z,1.70
2019-05-06T08:35:14.318Z,1.67
2019-05-06T08:37:44.950Z,2.83
2019-05-06T08:40:15.251Z,2.40
2019-05-06T08:42:44.822Z,1.43
2019-05-06T08:45:14.859Z,2.40
2019-05-06T08:47:44.522Z,2.60
2019-05-06T08:50:27.908Z,1.20
2019-05-06T08:53:05.242Z,2.33
2019-05-06T08:55:37.633Z,1.93
2019-05-06T08:58:07.273Z,1.23
2019-05-06T09:00:38.792Z,1.00
2019-05-06T09:03:08.432Z,2.00
2019-05-06T09:05:38.022Z,4.07
2019-05-06T09:08:07.676Z,1.47
2019-05-06T09:10:37.335Z,1.80
2019-05-06T09:13:06.984Z,2.73
2019-05-06T09:15:36.621Z,1.53
2019-05-06T09:18:06.337Z,1.23
2019-05-06T09:20:35.999Z,1.67
2019-05-06T09:23:05.662Z,3.40
2019-05-06T09:25:35.246Z,2.10
2019-05-06T09:28:23.390Z,1.70
2019-05-06T09:31:02.220Z,0.80
2019-05-06T09:33:33.646Z,1.97
2019-05-06T09:36:03.531Z,2.17
2019-05-06T09:38:33.206Z,2.43
2019-05-06T09:41:04.975Z,0.97
2019-05-06T09:43:34.122Z,1.13
2019-05-06T09:46:03.980Z,0.90
2019-05-06T09:48:52.594Z,0.87
2019-05-06T09:51:22.241Z,1.23
2019-05-06T09:54:09.901Z,1.27
2019-05-06T09:56:42.750Z,1.67
2019-05-06T09:59:12.955Z,1.87
2019-05-06T10:01:43.958Z,0.80
2019-05-06T10:04:13.641Z,1.40
2019-05-06T10:06:55.737Z,1.60
2019-05-06T10:09:16.161Z,1.53
2019-05-06T10:11:46.158Z,1.17
2019-05-06T10:14:15.932Z,1.67
2019-05-06T10:16:45.641Z,1.43
2019-05-06T10:19:15.384Z,1.60
2019-05-06T10:21:45.028Z,1.03
2019-05-06T10:24:14.699Z,0.80
2019-05-06T10:26:45.988Z,2.90
2019-05-06T10:29:22.121Z,0.80
2019-05-06T10:31:54.228Z,1.43
2019-05-06T10:34:24.880Z,2.40
2019-05-06T10:37:18.011Z,1.10
2019-05-06T10:39:39.228Z,1.33
2019-05-06T10:42:13.046Z,1.03
2019-05-06T10:44:45.989Z,1.10
2019-05-06T10:47:15.681Z,1.00
2019-05-06T10:49:45.314Z,1.77
2019-05-06T10:52:16.621Z,2.27
2019-05-06T10:54:46.208Z,1.70
2019-05-06T10:57:23.208Z,1.20
2019-05-06T10:59:53.402Z,1.07
2019-05-06T11:02:27.418Z,1.53
2019-05-06T11:04:57.089Z,0.77
2019-05-06T11:07:31.283Z,2.57
2019-05-06T11:09:58.087Z,1.73
2019-05-06T11:12:27.771Z,1.80
2019-05-06T11:14:57.466Z,1.43
2019-05-06T11:17:27.192Z,1.20
2019-05-06T11:19:56.795Z,1.60
2019-05-06T11:22:26.456Z,1.80
2019-05-06T11:24:56.073Z,1.80
2019-05-06T11:27:32.116Z,1.40
2019-05-06T11:30:02.307Z,1.43
2019-05-06T11:32:44.627Z,1.27
2019-05-06T11:35:16.168Z,2.07
2019-05-06T11:37:54.328Z,1.30
2019-05-06T11:40:24.166Z,2.13
2019-05-06T11:42:53.872Z,2.33
2019-05-06T11:45:23.522Z,2.23
2019-05-06T11:47:55.870Z,1.73
2019-05-06T11:50:25.542Z,1.87
2019-05-06T11:52:55.932Z,1.60
2019-05-06T11:55:30.846Z,1.30
2019-05-06T11:57:57.173Z,1.93
2019-05-06T12:00:33.236Z,1.70
2019-05-06T12:03:02.358Z,1.77
2019-05-06T12:05:32.999Z,1.47
2019-05-06T12:08:08.101Z,2.17
2019-05-06T12:10:34.242Z,1.93
2019-05-06T12:13:03.902Z,1.83
2019-05-06T12:15:33.616Z,1.23
2019-05-06T12:18:04.016Z,1.40
2019-05-06T12:20:33.867Z,2.33
2019-05-06T12:23:04.527Z,3.53
2019-05-06T12:25:34.484Z,3.07
2019-05-06T12:28:04.183Z,1.30
2019-05-06T12:30:33.844Z,2.13
2019-05-06T12:33:05.122Z,2.60
2019-05-06T12:35:36.506Z,1.73
2019-05-06T12:38:24.916Z,2.80
2019-05-06T12:40:39.197Z,3.07
2019-05-06T12:43:25.818Z,2.00
2019-05-06T12:46:06.149Z,1.60
2019-05-06T12:48:37.456Z,1.30
2019-05-06T12:51:07.109Z,2.47
2019-05-06T12:53:36.753Z,1.60
2019-05-06T12:56:06.362Z,2.03
2019-05-06T12:58:36.006Z,2.83
2019-05-06T13:01:06.136Z,2.30
2019-05-06T13:03:35.847Z,1.90
2019-05-06T13:06:07.973Z,2.13
2019-05-06T13:08:53.946Z,1.70
2019-05-06T13:11:08.340Z,4.53
2019-05-06T13:13:53.151Z,2.83
2019-05-06T13:16:09.448Z,1.60
2019-05-06T13:18:39.092Z,2.20
2019-05-06T13:21:08.828Z,2.40
2019-05-06T13:23:43.031Z,3.50
2019-05-06T13:26:12.954Z,3.33
2019-05-06T13:28:44.340Z,1.50
2019-05-06T13:31:20.794Z,2.47
2019-05-06T13:33:55.816Z,1.97
2019-05-06T13:36:25.466Z,3.40
2019-05-06T13:39:09.784Z,1.90
2019-05-06T13:41:26.425Z,2.20
2019-05-06T13:44:02.536Z,2.60
2019-05-06T13:46:33.594Z,1.87
2019-05-06T13:49:04.876Z,3.97
2019-05-06T13:51:39.028Z,2.37
2019-05-06T13:54:08.643Z,1.80
2019-05-06T13:56:38.308Z,2.70
2019-05-06T13:59:07.952Z,2.23
2019-05-06T14:01:43.957Z,3.00
2019-05-06T14:04:15.038Z,1.50
2019-05-06T14:06:44.729Z,2.03
2019-05-06T14:09:28.687Z,1.23
2019-05-06T14:11:46.771Z,2.07
2019-05-06T14:14:16.406Z,3.13
2019-05-06T14:16:46.038Z,1.40
2019-05-06T14:19:15.634Z,1.53
2019-05-06T14:21:45.297Z,1.80
2019-05-06T14:24:17.360Z,1.20
2019-05-06T14:26:58.132Z,3.23
2019-05-06T14:29:26.508Z,1.30
2019-05-06T14:31:57.953Z,1.20
2019-05-06T14:34:27.610Z,2.47
2019-05-06T14:36:57.252Z,2.07
2019-05-06T14:39:44.740Z,2.40
2019-05-06T14:42:01.873Z,1.73
2019-05-06T14:44:32.668Z,2.43
2019-05-06T14:47:17.268Z,1.80
2019-05-06T14:49:47.406Z,1.60
2019-05-06T14:52:17.083Z,1.60
2019-05-06T14:54:53.232Z,0.90
2019-05-06T14:57:23.594Z,1.93
2019-05-06T14:59:55.705Z,1.13
2019-05-06T15:02:27.156Z,1.57
2019-05-06T15:04:57.017Z,1.17
2019-05-06T15:07:26.623Z,1.00
2019-05-06T15:10:15.166Z,1.40
2019-05-06T15:12:27.734Z,1.30
2019-05-06T15:14:57.425Z,2.10
2019-05-06T15:17:27.078Z,1.17
2019-05-06T15:19:56.776Z,2.23
2019-05-06T15:22:26.492Z,1.20
2019-05-06T15:24:56.079Z,1.57
2019-05-06T15:27:25.740Z,2.33
2019-05-06T15:29:56.965Z,1.40
2019-05-06T15:32:31.242Z,1.67
2019-05-06T15:35:17.552Z,1.50
2019-05-06T15:37:57.561Z,1.93
2019-05-06T15:40:32.753Z,1.63
2019-05-06T15:42:58.537Z,3.00
2019-05-06T15:45:28.181Z,5.47
2019-05-06T15:47:57.849Z,1.67
2019-05-06T15:50:27.471Z,1.83
2019-05-06T15:52:57.182Z,1.93
2019-05-06T15:55:26.846Z,1.00
2019-05-06T15:57:56.522Z,1.93
2019-05-06T16:00:26.536Z,1.37
2019-05-06T16:02:56.258Z,1.40
2019-05-06T16:05:26.702Z,2.00
2019-05-06T16:07:56.520Z,2.00
2019-05-06T16:10:26.226Z,2.23
2019-05-06T16:12:55.827Z,1.87
2019-05-06T16:15:25.462Z,0.90
2019-05-06T16:17:55.121Z,1.10
2019-05-06T16:20:24.778Z,2.30
2019-05-06T16:22:56.112Z,1.13
2019-05-06T16:25:26.852Z,1.10
2019-05-06T16:27:57.383Z,1.00
2019-05-06T16:30:27.110Z,1.30
2019-05-06T16:32:56.674Z,1.60
2019-05-06T16:35:26.322Z,1.77
2019-05-06T16:37:55.976Z,1.40
2019-05-06T16:40:25.927Z,1.47
2019-05-06T16:42:55.669Z,1.03
2019-05-06T16:45:25.313Z,5.33
2019-05-06T16:47:55.042Z,3.20
2019-05-06T16:50:25.396Z,1.47
2019-05-06T16:52:55.089Z,2.00
2019-05-06T16:55:26.392Z,1.77
2019-05-06T16:58:06.593Z,1.70
2019-05-06T17:00:37.723Z,1.27
2019-05-06T17:03:14.954Z,2.30
2019-05-06T17:06:02.729Z,2.47
2019-05-06T17:08:35.464Z,1.67
2019-05-06T17:11:04.742Z,2.40
2019-05-06T17:13:37.715Z,1.47
2019-05-06T17:16:06.297Z,2.17
2019-05-06T17:18:35.949Z,2.07
2019-05-06T17:21:05.919Z,3.30
2019-05-06T17:23:35.674Z,2.27
2019-05-06T17:26:05.243Z,1.60
2019-05-06T17:28:36.577Z,2.57
2019-05-06T17:31:07.872Z,2.50
2019-05-06T17:33:39.143Z,2.13
2019-05-06T17:36:12.573Z,3.30
2019-05-06T17:38:52.578Z,2.13
2019-05-06T17:41:23.769Z,3.17
2019-05-06T17:43:53.560Z,1.97
2019-05-06T17:46:27.518Z,2.50
2019-05-06T17:49:12.842Z,1.67
2019-05-06T17:51:44.097Z,2.77
2019-05-06T17:54:13.779Z,2.13
2019-05-06T17:56:43.516Z,1.83
2019-05-06T17:59:13.485Z,1.43
2019-05-06T18:01:48.071Z,0.90
2019-05-06T18:04:17.783Z,3.03
2019-05-06T18:06:47.746Z,2.67
2019-05-06T18:09:17.299Z,0.97
2019-05-06T18:11:58.544Z,1.57
2019-05-06T18:14:20.095Z,1.73
2019-05-06T18:16:49.810Z,2.93
2019-05-06T18:19:19.400Z,1.67
2019-05-06T18:21:49.102Z,1.60
2019-05-06T18:24:18.746Z,2.13
2019-05-06T18:26:48.400Z,2.73
2019-05-06T18:29:18.132Z,2.33
2019-05-06T18:31:47.846Z,2.33
2019-05-06T18:34:17.607Z,2.20
2019-05-06T18:36:47.250Z,3.47
2019-05-06T18:39:17.037Z,3.33
2019-05-06T18:41:46.691Z,1.53
2019-05-06T18:44:16.281Z,2.47
2019-05-06T18:46:46.124Z,1.90
2019-05-06T18:49:15.803Z,1.10
2019-05-06T18:51:46.233Z,2.90
2019-05-06T18:54:15.995Z,1.10
2019-05-06T18:56:45.645Z,1.10
2019-05-06T18:59:15.340Z,1.23
2019-05-06T19:01:44.921Z,1.53
2019-05-06T19:04:24.928Z,1.90
2019-05-06T19:07:09.395Z,1.27
2019-05-06T19:09:32.576Z,1.00
2019-05-06T19:12:03.604Z,2.00
2019-05-06T19:14:33.597Z,1.20
2019-05-06T19:17:03.522Z,2.20
2019-05-06T19:19:34.873Z,2.33
2019-05-06T19:22:04.638Z,2.53
2019-05-06T19:24:34.471Z,1.10
2019-05-06T19:27:04.220Z,1.37
2019-05-06T19:29:33.918Z,2.20
2019-05-06T19:32:03.685Z,1.10
2019-05-06T19:34:35.296Z,2.40
2019-05-06T19:37:04.600Z,2.43
2019-05-06T19:39:34.287Z,1.20
2019-05-06T19:42:05.104Z,1.67
2019-05-06T19:44:34.978Z,3.23
2019-05-06T19:47:04.641Z,1.07
2019-05-06T19:49:34.284Z,3.33
2019-05-06T19:52:03.948Z,1.73
2019-05-06T19:54:33.610Z,1.53
2019-05-06T19:57:03.178Z,1.50
2019-05-06T19:59:33.222Z,1.50
2019-05-06T20:02:05.039Z,2.50
2019-05-06T20:04:35.319Z,1.17
2019-05-06T20:07:09.418Z,3.00
2019-05-06T20:09:53.008Z,1.77
2019-05-06T20:12:25.323Z,1.77
2019-05-06T20:14:56.630Z,1.00
2019-05-06T20:17:26.307Z,1.57
2019-05-06T20:19:55.956Z,2.47
2019-05-06T20:22:25.658Z,3.33
2019-05-06T20:24:55.310Z,9.73
2019-05-06T20:27:24.972Z,1.70
2019-05-06T20:29:54.597Z,1.17
2019-05-06T20:32:24.279Z,2.97
2019-05-06T20:34:53.928Z,1.37
2019-05-06T20:37:23.617Z,1.00
2019-05-06T20:39:54.550Z,1.00
2019-05-06T20:42:24.223Z,3.63
2019-05-06T20:44:53.887Z,1.33
2019-05-06T20:47:23.553Z,1.27
2019-05-06T20:49:53.161Z,1.10
2019-05-06T20:52:23.095Z,1.40
2019-05-06T20:54:52.834Z,1.63
2019-05-06T20:57:23.062Z,1.00
2019-05-06T20:59:52.786Z,1.33
2019-05-06T21:02:25.558Z,3.13
2019-05-06T21:04:53.654Z,3.47
2019-05-06T21:07:23.322Z,2.20
2019-05-06T21:09:53.056Z,1.23
2019-05-06T21:12:22.704Z,1.03
2019-05-06T21:14:52.476Z,2.80
2019-05-06T21:17:23.143Z,1.43
2019-05-06T21:19:52.860Z,1.47
2019-05-06T21:22:22.551Z,1.10
2019-05-06T21:24:52.218Z,0.90
2019-05-06T21:27:23.013Z,1.53
2019-05-06T21:29:52.885Z,2.23
2019-05-06T21:32:22.620Z,0.90
2019-05-06T21:34:52.582Z,1.77
2019-05-06T21:37:22.890Z,1.67
2019-05-06T21:39:53.048Z,1.90
2019-05-06T21:42:24.079Z,0.83
2019-05-06T21:44:53.765Z,1.80
2019-05-06T21:47:23.417Z,5.00
2019-05-06T21:49:53.112Z,3.13
2019-05-06T21:52:34.265Z,2.00
2019-05-06T21:54:54.066Z,1.40
2019-05-06T21:57:23.663Z,2.03
2019-05-06T21:59:53.426Z,1.50
2019-05-06T22:02:23.126Z,1.40
2019-05-06T22:04:55.484Z,1.57
2019-05-06T22:07:24.001Z,2.07
2019-05-06T22:09:53.594Z,3.20
2019-05-06T22:12:24.521Z,2.87
2019-05-06T22:14:54.418Z,1.33
2019-05-06T22:17:24.176Z,2.10
2019-05-06T22:19:53.825Z,1.20
2019-05-06T22:22:25.040Z,2.57
2019-05-06T22:24:57.619Z,1.87
2019-05-06T22:27:27.526Z,2.47
2019-05-06T22:29:57.198Z,1.80
2019-05-06T22:32:26.849Z,1.93
2019-05-06T22:34:56.568Z,2.07
2019-05-06T22:37:26.258Z,1.53
2019-05-06T22:39:55.974Z,1.50
2019-05-06T22:42:25.636Z,2.30
2019-05-06T22:44:55.368Z,1.57
2019-05-06T22:47:25.115Z,2.87
2019-05-06T22:49:54.830Z,2.10
2019-05-06T22:52:24.571Z,2.77
2019-05-06T22:54:54.170Z,2.30
2019-05-06T22:57:23.840Z,2.30
2019-05-06T22:59:53.728Z,1.23
2019-05-06T23:02:32.151Z,3.53
2019-05-06T23:05:04.563Z,2.63
2019-05-06T23:07:34.412Z,1.40
2019-05-06T23:10:07.245Z,3.67
2019-05-06T23:12:37.974Z,1.50
2019-05-06T23:15:08.444Z,1.20
2019-05-06T23:17:38.101Z,2.67
2019-05-06T23:20:07.820Z,2.97
2019-05-06T23:22:37.517Z,3.13
2019-05-06T23:25:07.226Z,2.40
2019-05-06T23:27:36.890Z,2.00
2019-05-06T23:30:07.307Z,3.30
2019-05-06T23:32:36.931Z,2.40
2019-05-06T23:35:06.979Z,2.60
2019-05-06T23:38:12.963Z,3.17
2019-05-06T23:41:18.834Z,2.47
2019-05-06T23:44:24.580Z,1.83
2019-05-06T23:47:30.480Z,3.33
2019-05-06T23:50:36.747Z,2.50
2019-05-06T23:53:42.658Z,2.27
2019-05-06T23:56:42.897Z,1.97
2019-05-06T23:59:16.566Z,3.23
